Latest Weather Observations for Brisbane

IDQ60901

Issued at 7:15 pm EST Thursday 27 November 2014 (issued every 10 minutes, with the page automatically refreshed every 10 minutes)

About weather observations | Map of Brisbane area stations | Latest observations for Brisbane area | Other Formats
Station Details ID: 040913 Name: BRISBANE Lat: -27.48 Lon: 153.04 Height: 8.13 m
Data from the previous 72 hours. | See also: Recent months at Brisbane
Date/Time
EST
Tmp

°C
App
Tmp
°C
Dew
Point
°C
Rel
Hum
%
Delta-T

°C
Wind Press
QNH
hPa
Press
MSL
hPa
Rain
since
9 am
mm
Dir
 
Spd
km/h
Gust
km/h
Spd
kts
Gust
kts
27/07:00pm 22.7 25.8 21.0 90 1.1 SSW 6 17 3 9 1016.9 1016.9 41.4
27/06:30pm 22.8 26.6 21.6 93 0.8 E 4 11 2 6 1016.6 1016.6 41.2
27/06:00pm 22.9 25.6 22.2 96 0.5 E 11 17 6 9 1015.5 1015.5 41.0
27/05:30pm 22.4 25.1 22.1 98 0.2 E 11 19 6 10 1015.2 1015.2 40.8
27/05:00pm 20.0 20.7 19.7 98 0.2 SE 15 24 8 13 1015.9 1015.9 38.6
27/04:47pm 17.8 15.4 16.5 92 0.8 WSW 24 46 13 25 1016.6 1016.6 23.4
27/04:44pm 19.3 14.8 17.4 89 1.2 SSW 37 83 20 45 1015.1 1015.1 13.8
27/04:41pm 20.7 17.9 18.3 86 1.5 S 30 50 16 27 1014.5 1014.5 5.4
27/04:34pm 23.1 20.5 15.9 64 4.3 WSW 24 41 13 22 1014.4 1014.4 0.2
27/04:30pm 28.1 29.7 19.9 61 5.4 ENE 11 22 6 12 1013.4 1013.4 0.0
27/04:00pm 29.2 29.9 18.9 53 6.7 NE 13 26 7 14 1012.7 1012.7 0.0
27/03:30pm 29.5 29.9 18.9 53 6.9 ENE 15 24 8 13 1012.3 1012.3 0.0
27/03:00pm 30.1 30.8 18.8 50 7.3 NE 13 24 7 13 1012.1 1012.1 0.0
27/02:30pm 30.0 30.4 18.1 49 7.6 ENE 13 20 7 11 1012.6 1012.6 0.0
27/02:00pm 30.5 31.7 18.2 47 7.9 NE 9 19 5 10 1013.1 1013.1 0.0
27/01:30pm 31.6 34.1 20.2 50 7.6 NE 7 13 4 7 1013.4 1013.4 0.0
27/01:00pm 30.8 32.6 19.5 51 7.4 NE 9 19 5 10 1013.6 1013.6 0.0
27/12:30pm 30.9 33.0 19.3 50 7.6 NNE 7 17 4 9 1013.9 1013.9 0.0
27/12:00pm 31.1 33.5 20.1 52 7.3 NE 7 17 4 9 1014.2 1014.2 0.0
27/11:30am 29.7 31.0 17.2 47 7.9 ENE 6 9 3 5 1014.6 1014.6 0.0
27/11:00am 29.5 30.9 17.3 47 7.7 NNE 6 11 3 6 1015.0 1015.0 0.0
27/10:30am 30.0 31.6 17.8 48 7.8 ENE 6 11 3 6 1015.4 1015.4 0.0
27/10:00am 29.3 31.0 18.4 51 7.0 E 7 11 4 6 1015.6 1015.6 0.0
27/09:30am 28.3 29.6 17.5 52 6.8 ENE 7 11 4 6 1016.0 1016.0 0.0
27/09:00am 28.7 30.6 18.5 54 6.5 NNW 6 9 3 5 1016.3 1016.3 3.0
27/08:30am 27.7 29.3 17.8 54 6.3 NNE 6 11 3 6 1016.6 1016.6 3.0
27/08:00am 27.2 29.7 18.2 58 5.7 WNW 2 7 1 4 1016.6 1016.6 3.0
27/07:30am 26.0 28.1 18.9 65 4.5 W 6 9 3 5 1016.6 1016.6 3.0
27/07:00am 25.1 27.7 19.2 70 3.8 NW 4 6 2 3 1016.4 1016.4 3.0
27/06:30am 24.5 28.1 19.8 75 3.0 CALM 0 0 0 0 1016.2 1016.2 3.0
27/06:00am 24.3 27.8 20.4 79 2.5 W 2 6 1 3 1016.1 1016.1 3.0
27/05:30am 23.9 27.3 20.2 80 2.4 W 2 4 1 2 1015.8 1015.8 3.0
27/05:00am 23.6 27.0 20.1 81 2.3 WNW 2 4 1 2 1015.6 1015.6 3.0
27/04:30am 23.6 27.0 20.1 81 2.3 WNW 2 6 1 3 1015.5 1015.5 3.0
27/04:00am 23.5 27.2 20.0 81 2.3 CALM 0 4 0 2 1015.3 1015.3 3.0
27/03:30am 23.4 26.8 20.2 82 2.1 W 2 4 1 2 1015.0 1015.0 3.0
27/03:00am 23.5 26.9 20.2 82 2.1 WNW 2 7 1 4 1015.0 1015.0 3.0
27/02:30am 23.8 26.4 20.1 80 2.4 W 6 7 3 4 1015.2 1015.2 3.0
27/02:00am 23.9 27.3 20.2 80 2.4 NW 2 7 1 4 1015.1 1015.1 3.0
27/01:30am 23.9 26.9 20.0 79 2.5 NNW 4 7 2 4 1015.3 1015.3 3.0
27/01:00am 24.0 27.3 19.9 78 2.6 N 2 6 1 3 1015.5 1015.5 3.0
27/12:30am 24.1 27.0 19.8 77 2.8 N 4 9 2 5 1015.5 1015.5 3.0
27/12:00am 24.3 26.9 20.0 77 2.8 NNW 6 11 3 6 1015.8 1015.8 3.0
 
Date/Time
EST
Tmp

°C
App
Tmp
°C
Dew
Point
°C
Rel
Hum
%
Delta-T

°C
Wind Press
QNH
hPa
Press
MSL
hPa
Rain
since
9 am
mm
Dir
 
Spd
km/h
Gust
km/h
Spd
kts
Gust
kts
26/11:30pm 24.3 27.3 20.0 77 2.8 N 4 7 2 4 1016.1 1016.1 3.0
26/11:00pm 24.4 27.4 20.1 77 2.8 N 4 11 2 6 1016.2 1016.2 3.0
26/10:30pm 24.5 27.6 20.2 77 2.8 NNE 4 11 2 6 1016.7 1016.7 3.0
26/10:00pm 24.6 26.9 19.9 75 3.0 NNE 7 13 4 7 1016.7 1016.7 3.0
26/09:30pm 24.7 27.6 19.8 74 3.2 NNE 4 7 2 4 1017.2 1017.2 3.0
26/09:00pm 24.8 28.0 19.8 74 3.2 NNE 2 6 1 3 1017.5 1017.5 3.0
26/08:30pm 25.1 28.3 19.7 72 3.5 NNE 2 6 1 3 1017.5 1017.5 3.0
26/08:00pm 25.1 27.8 19.5 71 3.6 ENE 4 7 2 4 1017.3 1017.3 3.0
26/07:30pm 25.2 27.4 19.1 69 3.9 ENE 6 9 3 5 1017.2 1017.2 3.0
26/07:00pm 25.3 27.3 19.2 69 3.9 E 7 11 4 6 1016.8 1016.8 3.0
26/06:30pm 25.4 27.9 19.8 71 3.6 NE 6 11 3 6 1016.7 1016.7 3.0
26/06:00pm 25.6 27.8 19.5 69 3.9 NNE 7 17 4 9 1016.3 1016.3 3.0
26/05:30pm 25.9 28.1 19.3 67 4.2 NNE 6 13 3 7 1015.7 1015.7 3.0
26/05:00pm 26.3 27.9 19.2 65 4.6 NE 9 17 5 9 1015.3 1015.3 3.0
26/04:30pm 26.6 28.5 19.7 66 4.5 NE 9 17 5 9 1015.1 1015.1 3.0
26/04:00pm 26.8 29.0 19.7 65 4.6 NNE 7 17 4 9 1015.0 1015.0 3.0
26/03:30pm 27.1 29.0 19.7 64 4.8 NE 9 22 5 12 1014.6 1014.6 3.0
26/03:00pm 27.8 29.5 20.1 63 5.0 ENE 11 20 6 11 1014.7 1014.7 3.0
26/02:30pm 27.8 29.3 19.8 61 5.2 NNE 11 22 6 12 1014.9 1014.9 3.0
26/02:00pm 28.4 30.5 20.2 61 5.4 NE 9 19 5 10 1015.0 1015.0 3.0
26/01:30pm 27.5 28.4 19.3 61 5.3 NE 13 22 7 12 1015.0 1015.0 3.0
26/01:00pm 28.2 29.5 19.4 59 5.7 NE 11 20 6 11 1015.4 1015.4 3.0
26/12:30pm 28.7 30.0 19.3 56 6.1 NNE 11 20 6 11 1015.7 1015.7 3.0
26/12:00pm 28.7 30.3 19.1 56 6.2 NE 9 17 5 9 1016.1 1016.1 3.0
26/11:30am 27.9 29.2 19.4 60 5.5 ENE 11 17 6 9 1016.5 1016.5 3.0
26/11:00am 27.2 29.8 20.5 67 4.4 NNE 7 15 4 8 1016.9 1016.9 3.0
26/10:30am 25.7 28.5 20.9 75 3.2 NE 7 15 4 8 1016.9 1016.9 3.0
26/10:00am 24.7 28.9 22.4 87 1.5 ESE 4 7 2 4 1017.2 1017.2 3.0
26/09:30am 23.9 27.9 21.4 86 1.6 NW 2 4 1 2 1017.3 1017.3 1.0
26/09:00am 24.5 27.2 20.6 79 2.5 N 7 13 4 7 1017.2 1017.2 3.6
26/08:30am 26.6 29.4 20.9 71 3.8 NW 7 11 4 6 1017.0 1017.0 3.4
26/08:00am 25.2 27.8 20.5 75 3.1 NNW 7 13 4 7 1017.1 1017.1 3.4
26/07:30am 25.0 28.6 21.3 80 2.4 N 4 9 2 5 1017.0 1017.0 3.4
26/07:00am 24.8 28.5 21.5 82 2.2 N 4 7 2 4 1016.9 1016.9 3.4
26/06:30am 24.5 28.3 21.6 84 1.9 N 4 9 2 5 1016.6 1016.6 3.4
26/06:00am 24.7 29.0 22.0 85 1.8 N 2 4 1 2 1016.4 1016.4 3.4
26/05:30am 24.3 28.8 22.2 88 1.4 NE 2 7 1 4 1015.8 1015.8 3.4
26/05:00am 24.0 27.9 21.9 88 1.4 NNW 4 7 2 4 1015.6 1015.6 3.4
26/04:30am 23.9 28.1 21.8 88 1.4 NNW 2 4 1 2 1015.4 1015.4 3.4
26/04:00am 24.0 28.5 22.3 90 1.1 NNE 2 4 1 2 1015.1 1015.1 3.4
26/03:30am 23.8 28.4 22.4 92 0.9 NE 2 4 1 2 1015.1 1015.1 3.4
26/03:00am 23.7 28.5 22.1 91 1.1 CALM 0 0 0 0 1015.0 1015.0 3.4
26/02:30am 23.6 28.3 22.0 91 1.1 CALM 0 2 0 1 1015.0 1015.0 3.4
26/02:00am 23.8 27.4 22.1 90 1.1 ENE 6 9 3 5 1015.1 1015.1 3.4
26/01:30am 23.7 27.2 21.8 89 1.3 ESE 6 9 3 5 1015.6 1015.6 2.6
26/01:00am 23.9 27.8 21.8 88 1.4 ENE 4 7 2 4 1015.9 1015.9 2.4
26/12:30am 24.8 28.6 21.7 83 2.1 ESE 4 6 2 3 1016.1 1016.1 0.0
26/12:00am 24.7 27.8 21.0 80 2.4 NNE 6 9 3 5 1016.6 1016.6 0.0
 
Date/Time
EST
Tmp

°C
App
Tmp
°C
Dew
Point
°C
Rel
Hum
%
Delta-T

°C
Wind Press
QNH
hPa
Press
MSL
hPa
Rain
since
9 am
mm
Dir
 
Spd
km/h
Gust
km/h
Spd
kts
Gust
kts
25/11:30pm 25.4 29.5 21.5 79 2.6 ESE 2 4 1 2 1017.0 1017.0 0.0
25/11:00pm 25.5 29.6 21.6 79 2.6 SE 2 4 1 2 1017.2 1017.2 0.0
25/10:30pm 25.5 29.6 21.6 79 2.6 NE 2 6 1 3 1017.4 1017.4 0.0
25/10:00pm 25.5 28.4 21.8 80 2.5 E 9 17 5 9 1017.4 1017.4 0.0
25/09:30pm 25.6 29.0 21.7 79 2.6 ENE 6 11 3 6 1017.0 1017.0 0.0
25/09:00pm 25.6 28.8 21.7 79 2.6 ENE 7 13 4 7 1016.7 1016.7 0.0
25/08:30pm 25.6 28.5 21.7 79 2.6 ENE 9 17 5 9 1016.3 1016.3 0.0
25/08:00pm 25.7 28.7 22.0 80 2.5 ENE 9 15 5 8 1015.5 1015.5 0.0
25/07:30pm 25.6 28.2 21.9 80 2.5 ENE 11 22 6 12 1014.7 1014.7 0.0
25/07:00pm 25.6 28.2 21.9 80 2.5 NE 11 24 6 13 1013.4 1013.4 0.0
25/06:30pm 25.7 27.6 21.4 77 2.8 NNE 13 22 7 12 1013.0 1013.0 0.0
25/06:00pm 26.0 28.3 21.4 76 3.1 NE 11 24 6 13 1012.3 1012.3 0.0
25/05:30pm 26.6 27.9 20.9 71 3.8 NE 15 28 8 15 1011.9 1011.9 0.0
25/05:00pm 27.9 29.2 20.2 63 5.1 NNE 13 26 7 14 1011.7 1011.7 0.0
25/04:30pm 28.4 29.7 20.2 61 5.4 NNE 13 22 7 12 1011.6 1011.6 0.0
25/04:00pm 28.8 30.0 20.0 59 5.8 NNE 13 22 7 12 1011.4 1011.4 0.0
25/03:30pm 29.3 30.2 19.3 55 6.5 NNE 13 24 7 13 1011.4 1011.4 0.0
25/03:00pm 29.9 31.4 19.0 52 7.1 N 9 20 5 11 1011.6 1011.6 0.0
25/02:30pm 29.8 30.2 17.3 47 7.9 NNE 11 20 6 11 1012.0 1012.0 0.0
25/02:00pm 30.3 30.8 17.4 46 8.2 NNE 11 19 6 10 1011.9 1011.9 0.0
25/01:30pm 30.7 31.8 18.8 49 7.7 NE 11 22 6 12 1012.2 1012.2 0.0
25/01:00pm 30.2 31.0 17.3 46 8.2 NNE 9 15 5 8 1012.6 1012.6 0.0
25/12:30pm 29.8 30.5 17.9 48 7.6 NE 11 22 6 12 1013.0 1013.0 0.0
25/12:00pm 30.0 30.9 18.4 49 7.5 NE 11 22 6 12 1013.4 1013.4 0.0
25/11:30am 29.5 30.1 17.7 49 7.5 ENE 11 24 6 13 1013.8 1013.8 0.0
25/11:00am 30.2 31.4 18.3 49 7.6 NE 9 17 5 9 1014.3 1014.3 0.0
25/10:30am 30.0 31.1 18.1 49 7.6 ENE 9 17 5 9 1014.6 1014.6 0.0
25/10:00am 29.4 30.3 16.6 46 8.0 NE 7 13 4 7 1015.0 1015.0 0.0
25/09:30am 29.4 29.9 15.5 43 8.5 N 7 13 4 7 1015.3 1015.3 0.0
25/09:00am 28.0 28.7 16.0 48 7.4 NW 7 13 4 7 1015.3 1015.3 0.0
25/08:30am 26.9 27.8 16.2 52 6.6 NW 6 17 3 9 1015.6 1015.6 0.0
25/08:00am 26.6 28.1 17.7 58 5.6 WNW 6 9 3 5 1015.8 1015.8 0.0
25/07:30am 25.6 27.4 17.3 60 5.2 N 4 9 2 5 1015.9 1015.9 0.0
25/07:00am 24.6 27.0 18.8 70 3.7 NNE 4 7 2 4 1015.9 1015.9 0.0
25/06:30am 24.2 26.5 18.6 71 3.5 N 4 7 2 4 1015.7 1015.7 0.0
25/06:00am 23.0 25.6 19.2 79 2.4 W 4 7 2 4 1015.8 1015.8 0.0
25/05:30am 22.3 25.2 19.1 82 2.0 NW 2 4 1 2 1015.4 1015.4 0.0
25/05:00am 21.6 24.0 18.8 84 1.8 WNW 4 6 2 3 1014.9 1014.9 0.0
25/04:30am 21.7 23.8 18.9 84 1.8 N 6 11 3 6 1013.8 1013.8 0.0
25/04:00am 21.9 24.0 18.9 83 1.9 NNW 6 9 3 5 1014.4 1014.4 0.0
25/03:30am 22.2 24.2 18.8 81 2.1 NNW 6 13 3 7 1014.2 1014.2 0.0
25/03:00am 22.3 24.8 19.1 82 2.0 NNW 4 9 2 5 1014.1 1014.1 0.0
25/02:30am 22.6 24.8 19.2 81 2.2 N 6 13 3 7 1014.0 1014.0 0.0
25/02:00am 22.8 25.5 19.4 81 2.2 N 4 9 2 5 1014.0 1014.0 0.0
25/01:30am 23.0 25.3 19.4 80 2.3 N 6 13 3 7 1014.2 1014.2 0.0
25/01:00am 23.2 25.6 19.6 80 2.3 N 6 13 3 7 1014.3 1014.3 0.0
25/12:30am 23.4 25.7 19.5 79 2.5 NNW 6 15 3 8 1014.6 1014.6 0.0
25/12:00am 23.6 25.8 19.5 78 2.6 N 7 19 4 10 1014.7 1014.7 0.0
 
Date/Time
EST
Tmp

°C
App
Tmp
°C
Dew
Point
°C
Rel
Hum
%
Delta-T

°C
Wind Press
QNH
hPa
Press
MSL
hPa
Rain
since
9 am
mm
Dir
 
Spd
km/h
Gust
km/h
Spd
kts
Gust
kts
24/11:30pm 23.9 26.1 19.6 77 2.8 N 7 17 4 9 1014.9 1014.9 0.0
24/11:00pm 24.2 26.6 19.7 76 2.9 N 6 15 3 8 1015.1 1015.1 0.0
24/10:30pm 24.2 26.1 19.7 76 2.9 N 9 26 5 14 1015.1 1015.1 0.0
24/10:00pm 24.1 26.0 19.8 77 2.8 N 9 24 5 13 1015.2 1015.2 0.0
24/09:30pm 24.3 26.2 19.8 76 2.9 N 9 22 5 12 1015.1 1015.1 0.0
24/09:00pm 24.4 26.4 19.9 76 2.9 N 9 20 5 11 1015.0 1015.0 0.0
24/08:30pm 24.5 26.5 20.0 76 2.9 N 9 24 5 13 1014.5 1014.5 0.0
24/08:00pm 24.6 26.2 19.9 75 3.0 N 11 26 6 14 1014.3 1014.3 0.0
24/07:30pm 24.7 26.7 20.0 75 3.0 NNE 9 24 5 13 1013.8 1013.8 0.0

Latest Capital City Observations: Canberra | Sydney | Melbourne | Brisbane | Adelaide | Perth | Hobart | Darwin

Other Formats:

Comma delimited format used in spreadsheet applications
http://www.bom.gov.au/fwo/IDQ60901/IDQ60901.94576.axf

JavaScript Object Notation format (JSON) in row-major order
http://www.bom.gov.au/fwo/IDQ60901/IDQ60901.94576.json